Latest Weather Observations for Rockhampton

IDQ60801

Issued at 2:32 pm EST Tuesday 21 April 2015 (issued every 30 minutes, with the page automatically refreshed every 10 minutes)

About weather observations | Map of weather stations | Latest weather observations for QLD | Other Formats
Station Details ID: 039083 Name: ROCKHAMPTON AERO Lat: -23.38 Lon: 150.48 Height: 10.4 m
Data from the previous 72 hours. | See also: Recent months at Rockhampton
Date/Time
EST
Temp
°C
App
Temp
°C
Dew
Point
Rel
Hum
%
Delta-T
°C
Wind Press
QNH
hPa
Press
MSL
hPa
Rain
since 9 am
mm
Dir
 
Spd
km/h
Gust
km/h
Spd
kts
Gust
kts
21/02:30pm 23.8 18.8 1.3 22 10.5 SSW 17 26 9 14 1015.0 - 0.0
21/02:00pm 24.0 19.2 2.4 24 10.3 SSW 17 30 9 16 1015.2 - 0.0
21/01:30pm 23.6 19.4 4.0 28 9.6 WSW 15 22 8 12 1015.5 - 0.0
21/01:00pm 23.3 18.0 2.8 26 9.8 SW 20 30 11 16 1016.1 - 0.0
21/12:30pm 22.8 17.9 3.9 29 9.2 SSW 19 30 10 16 1016.4 - 0.0
21/12:00pm 22.9 17.0 3.7 28 9.3 SW 24 35 13 19 1017.0 1016.9 0.0
21/11:30am 21.9 15.5 3.3 29 8.9 SSW 26 33 14 18 1017.7 - 0.0
21/11:00am 21.5 15.2 3.8 31 8.5 SW 26 32 14 17 1018.3 - 0.0
21/10:30am 21.1 16.0 4.1 32 8.2 WSW 20 26 11 14 1018.6 - 0.0
21/10:00am 21.1 16.4 5.0 35 7.9 SSW 19 26 10 14 1018.7 - 0.0
21/09:30am 19.6 14.2 4.4 36 7.3 SSW 22 30 12 16 1018.7 - 0.0
21/09:00am 19.0 12.8 4.3 38 7.0 SW 26 33 14 18 1018.8 1018.7 0.8
21/08:30am 18.4 12.5 4.0 38 6.8 SSW 24 30 13 16 1018.8 - 0.8
21/08:00am 17.1 12.5 5.5 46 5.6 SSW 19 28 10 15 1018.8 - 0.8
21/07:30am 16.9 12.6 5.4 46 5.5 SSW 17 20 9 11 1018.6 - 0.8
21/07:00am 16.8 11.9 5.0 45 5.6 SSW 20 28 11 15 1018.1 - 0.8
21/06:30am 16.3 13.0 6.2 51 4.9 SW 13 19 7 10 1018.0 - 0.8
21/06:00am 15.9 13.0 6.7 54 4.5 SW 11 15 6 8 1017.9 1017.8 0.8
21/05:30am 15.5 12.6 6.4 54 4.4 SSW 11 15 6 8 1017.7 - 0.8
21/05:00am 15.6 11.7 5.5 51 4.8 SSW 15 19 8 10 1017.6 - 0.8
21/04:30am 16.3 11.5 4.6 46 5.5 SSW 19 28 10 15 1017.5 - 0.8
21/04:00am 16.3 12.0 5.2 47 5.3 SSW 17 20 9 11 1017.4 - 0.8
21/03:30am 16.3 12.6 6.2 51 4.9 SSW 15 20 8 11 1017.4 - 0.8
21/03:00am 16.8 13.1 6.1 49 5.2 SSW 15 20 8 11 1017.6 1017.5 0.8
21/02:30am 17.2 12.1 5.9 47 5.5 SSW 22 30 12 16 1017.6 - 0.8
21/02:00am 17.3 12.9 6.5 49 5.3 SSW 19 28 10 15 1017.4 - 0.8
21/01:30am 17.3 12.4 7.1 51 5.1 SSW 22 28 12 15 1017.9 - 0.8
21/01:00am 17.4 13.8 9.8 61 4.0 SW 19 22 10 12 1018.2 - 0.8
21/12:30am 17.5 15.4 11.2 66 3.4 S 13 22 7 12 1018.3 - 0.8
21/12:00am 17.5 13.0 11.4 67 3.3 SW 26 35 14 19 1018.3 1018.2 0.8
 
Date/Time
EST
Temp
°C
App
Temp
°C
Dew
Point
Rel
Hum
%
Delta-T
°C
Wind Press
QNH
hPa
Press
MSL
hPa
Rain
since 9 am
mm
Dir
 
Spd
km/h
Gust
km/h
Spd
kts
Gust
kts
20/11:30pm 17.7 14.9 12.5 71 2.9 SSW 19 24 10 13 1018.2 - 0.8
20/11:00pm 17.9 14.6 12.7 71 2.9 SSW 22 30 12 16 1018.1 - 0.8
20/10:30pm 18.0 16.0 12.8 71 2.9 SSW 15 22 8 12 1018.4 - 0.8
20/10:00pm 18.0 15.4 13.2 73 2.7 SW 19 26 10 14 1018.5 - 0.8
20/09:30pm 18.1 16.4 13.5 74 2.6 SSW 15 19 8 10 1018.6 - 0.8
20/09:00pm 18.4 15.4 13.6 73 2.7 SW 22 33 12 18 1019.0 1018.9 0.8
20/08:30pm 18.5 16.5 13.9 74 2.6 SSW 17 24 9 13 1018.7 - 0.8
20/08:00pm 18.6 15.5 14.6 77 2.3 SW 24 30 13 16 1018.6 - 0.8
20/07:30pm 18.5 16.5 15.4 82 1.8 SW 20 28 11 15 1018.4 - 0.8
20/07:00pm 18.9 16.2 15.7 82 1.9 SW 24 32 13 17 1018.1 - 0.8
20/06:30pm 19.2 19.6 16.2 83 1.8 S 9 19 5 10 1017.2 - 0.8
20/05:30pm 19.8 20.3 16.6 82 1.9 SW 9 17 5 9 1016.8 - 0.8
20/05:00pm 21.1 20.5 17.5 80 2.2 SW 17 24 9 13 1017.0 - 0.8
20/04:30pm 21.3 20.3 17.6 79 2.3 SW 19 22 10 12 1016.5 - 0.8
20/04:00pm 22.1 20.9 17.4 74 2.9 SSW 20 26 11 14 1016.2 - 0.8
20/03:30pm 22.7 21.5 17.0 70 3.5 SSW 19 22 10 12 1016.0 - 0.8
20/03:00pm 23.0 23.1 17.5 71 3.4 SSE 13 19 7 10 1015.8 1015.7 0.8
20/02:30pm 22.5 22.0 17.7 74 3.0 S 17 22 9 12 1016.0 - 0.8
20/02:00pm 22.0 22.6 18.7 81 2.1 S 13 17 7 9 1016.4 - 0.8
20/01:30pm 20.9 20.9 19.0 89 1.2 SSW 17 22 9 12 1016.8 - 0.8
20/01:00pm 20.9 19.2 19.0 89 1.2 SSW 26 33 14 18 1017.1 - 0.8
20/12:30pm 21.8 20.8 19.6 87 1.4 SSW 24 30 13 16 1017.3 - 0.8
20/12:00pm 22.4 22.3 22.2 99 0.1 SSW 26 33 14 18 1017.6 1017.5 0.8
20/11:30am 23.7 25.2 23.0 96 0.5 SSW 20 24 11 13 1017.7 - 0.8
20/11:00am 22.7 24.7 21.6 93 0.7 SW 13 17 7 9 1018.0 - 0.8
20/10:30am 22.1 22.9 21.3 95 0.5 SW 19 22 10 12 1018.3 - 0.0
20/10:00am 23.1 25.4 21.3 90 1.2 S 11 15 6 8 1018.4 - 0.0
20/09:42am 22.9 25.1 21.1 89 1.2 SE 11 15 6 8 1018.5 - 0.0
20/09:30am 22.6 24.2 20.8 89 1.2 ESE 13 17 7 9 1018.4 - 0.0
20/09:00am 22.8 25.7 21.1 90 1.1 SE 7 11 4 6 1018.1 1018.0 2.4
20/08:30am 22.9 25.2 20.7 87 1.4 S 9 13 5 7 1017.8 - 2.4
20/08:00am 22.5 23.8 20.2 87 1.5 SSW 13 15 7 8 1017.8 - 2.4
20/07:30am 22.3 24.5 20.4 89 1.2 SSW 9 13 5 7 1017.4 - 2.4
20/07:00am 22.0 24.7 20.6 92 0.9 SW 7 9 4 5 1017.0 - 2.4
20/06:30am 21.7 24.9 20.5 93 0.8 SSE 4 7 2 4 1016.6 - 2.4
20/06:00am 21.7 23.5 20.3 92 0.9 SSW 11 15 6 8 1016.2 1016.1 2.4
20/05:32am 21.6 23.9 20.7 95 0.6 SW 9 13 5 7 1016.1 - 2.4
20/05:30am 21.6 24.3 20.7 95 0.6 SW 7 11 4 6 1016.1 - 2.4
20/05:04am 21.8 24.5 20.2 91 1.0 N 6 13 3 7 1016.4 - 1.4
20/05:00am 21.9 24.1 20.3 91 1.0 N 9 13 5 7 1016.4 - 1.2
20/04:30am 22.1 24.3 20.4 90 1.1 SSW 9 15 5 8 1016.0 - 0.8
20/04:00am 22.2 24.6 20.8 92 0.9 SSW 9 11 5 6 1016.1 - 0.8
20/03:30am 22.4 25.1 20.7 90 1.1 SSW 7 11 4 6 1015.9 - 0.8
20/03:00am 22.7 26.0 21.5 93 0.8 S 6 11 3 6 1016.0 1015.9 0.8
20/02:51am 22.9 25.5 21.2 90 1.1 S 9 11 5 6 1016.0 - 0.8
20/02:34am 22.6 24.8 20.4 87 1.4 SE 9 15 5 8 1016.2 - 0.6
20/02:30am 23.1 25.6 21.0 88 1.4 SE 9 11 5 6 1016.4 - 0.0
20/02:00am 22.7 27.0 21.2 91 1.0 CALM 0 0 0 0 1016.5 - 0.0
20/01:30am 22.9 25.7 20.9 88 1.3 SSW 7 9 4 5 1017.0 - 0.0
20/01:00am 22.4 26.6 20.9 91 1.0 CALM 0 0 0 0 1017.2 - 0.0
20/12:30am 23.0 26.8 20.9 88 1.4 S 2 7 1 4 1017.3 - 0.0
20/12:00am 23.0 26.4 20.9 88 1.4 S 4 9 2 5 1017.7 1017.6 0.0
 
Date/Time
EST
Temp
°C
App
Temp
°C
Dew
Point
Rel
Hum
%
Delta-T
°C
Wind Press
QNH
hPa
Press
MSL
hPa
Rain
since 9 am
mm
Dir
 
Spd
km/h
Gust
km/h
Spd
kts
Gust
kts
19/11:30pm 23.0 25.7 20.7 87 1.5 SSE 7 11 4 6 1017.7 - 0.0
19/11:00pm 22.8 25.2 20.8 88 1.3 SE 9 15 5 8 1017.4 - 0.0
19/10:30pm 22.7 24.8 20.9 89 1.2 ESE 11 15 6 8 1017.6 - 0.0
19/10:00pm 23.3 25.3 20.7 85 1.7 SE 11 15 6 8 1017.3 - 0.0
19/09:30pm 23.1 25.4 20.6 86 1.6 SSE 9 13 5 7 1017.2 - 0.0
19/09:00pm 23.5 26.2 20.3 82 2.1 S 6 9 3 5 1017.2 1017.1 0.0
19/08:30pm 23.5 26.0 20.3 82 2.1 S 7 9 4 5 1017.1 - 0.0
19/08:00pm 23.4 26.3 21.0 86 1.6 SSW 7 11 4 6 1016.9 - 0.0
19/07:30pm 24.0 26.4 20.1 79 2.5 SW 7 9 4 5 1016.8 - 0.0
19/07:00pm 24.4 27.7 19.1 72 3.4 CALM 0 0 0 0 1016.4 - 0.0
19/06:30pm 24.6 26.6 18.8 70 3.7 NNE 6 7 3 4 1016.1 - 0.0
19/06:00pm 25.4 26.9 18.8 67 4.2 N 9 11 5 6 1015.6 1015.5 0.0
19/05:30pm 26.4 27.8 18.7 62 4.9 ENE 9 15 5 8 1015.4 - 0.0
19/05:00pm 27.1 28.0 18.5 59 5.5 E 11 15 6 8 1015.3 - 0.0
19/04:30pm 27.6 28.7 18.0 55 6.1 E 9 11 5 6 1015.3 - 0.0
19/04:00pm 28.1 27.9 17.5 52 6.7 E 15 19 8 10 1015.0 - 0.0
19/03:30pm 28.4 28.4 16.3 47 7.5 E 11 19 6 10 1014.9 - 0.0
19/03:00pm 29.1 28.7 16.2 45 8.0 E 13 19 7 10 1014.9 1014.8 0.0
19/02:30pm 29.3 28.9 17.1 47 7.7 ESE 15 20 8 11 1014.9 - 0.0
19/02:00pm 29.5 29.7 17.7 49 7.5 SE 13 20 7 11 1015.2 - 0.0
19/01:30pm 29.4 29.7 17.8 49 7.4 ESE 13 22 7 12 1015.6 - 0.0
19/01:00pm 29.7 30.2 18.3 50 7.3 E 13 20 7 11 1016.0 - 0.0
19/12:30pm 28.5 29.8 18.5 54 6.4 SSE 9 13 5 7 1016.7 - 0.0
19/12:00pm 29.0 29.5 18.4 52 6.8 E 13 17 7 9 1017.2 1017.1 0.0
19/11:30am 28.6 29.8 19.0 56 6.2 ENE 11 17 6 9 1017.8 - 0.0
19/11:00am 29.2 30.9 19.3 55 6.4 E 9 15 5 8 1018.3 - 0.0
19/10:30am 27.6 29.5 19.8 62 5.1 SSW 9 15 5 8 1018.8 - 0.0
19/10:00am 26.8 28.8 20.0 66 4.4 ESE 9 15 5 8 1018.9 - 0.0
19/09:30am 26.3 28.3 20.0 68 4.1 SSE 9 15 5 8 1018.8 - 0.0
19/09:00am 25.4 27.2 20.3 73 3.3 S 11 15 6 8 1018.5 1018.4 2.2
19/08:30am 24.7 26.0 20.2 76 2.9 SSE 13 19 7 10 1018.5 - 2.2
19/08:00am 23.2 24.6 20.4 84 1.8 ESE 13 19 7 10 1018.4 - 2.2
19/07:30am 22.4 23.7 20.2 87 1.4 SE 13 22 7 12 1018.2 - 2.2
19/07:00am 21.7 22.9 20.0 90 1.1 SE 13 17 7 9 1018.0 - 2.2
19/06:30am 21.1 22.6 19.8 92 0.8 SE 11 15 6 8 1017.8 - 2.2
19/06:00am 21.1 22.6 19.7 92 0.9 SE 11 17 6 9 1017.7 1017.6 2.2
19/05:30am 21.0 22.9 19.7 92 0.8 SSE 9 11 5 6 1017.4 - 2.2
19/05:00am 21.2 22.7 19.8 92 0.9 SE 11 15 6 8 1017.0 - 2.2
19/04:30am 21.0 23.0 19.9 93 0.7 SSE 9 11 5 6 1016.6 - 2.2
19/04:00am 20.8 23.0 19.7 93 0.7 SSE 7 11 4 6 1016.6 - 2.2
19/03:30am 20.9 22.9 20.0 95 0.6 SSE 9 13 5 7 1016.6 - 2.2
19/03:00am 20.9 22.9 20.0 95 0.6 SSE 9 13 5 7 1016.9 1016.8 2.2
19/02:30am 21.2 23.2 19.9 92 0.8 SE 9 13 5 7 1017.2 - 2.2
19/02:00am 21.6 22.8 19.9 90 1.1 SE 13 17 7 9 1017.4 - 2.2
19/01:30am 21.5 23.5 19.9 91 1.0 SE 9 11 5 6 1017.9 - 2.2
19/01:00am 21.5 23.8 19.9 91 1.0 SSE 7 11 4 6 1018.3 - 2.2
19/12:30am 21.5 23.4 19.8 90 1.1 SSE 9 11 5 6 1018.5 - 2.2
19/12:00am 21.7 24.2 20.3 92 0.9 SSE 7 11 4 6 1018.7 1018.6 2.2
 
Date/Time
EST
Temp
°C
App
Temp
°C
Dew
Point
Rel
Hum
%
Delta-T
°C
Wind Press
QNH
hPa
Press
MSL
hPa
Rain
since 9 am
mm
Dir
 
Spd
km/h
Gust
km/h
Spd
kts
Gust
kts
18/11:30pm 22.2 24.4 19.5 85 1.7 SSE 7 9 4 5 1018.6 - 2.2
18/11:00pm 22.6 24.4 19.6 83 1.9 SE 9 11 5 6 1018.7 - 2.2
18/10:30pm 22.7 24.7 19.9 84 1.8 ESE 9 13 5 7 1018.9 - 2.2
18/10:00pm 23.1 23.9 19.8 82 2.1 ESE 15 22 8 12 1018.9 - 2.2
18/09:30pm 23.2 24.2 20.3 84 1.9 ESE 15 19 8 10 1018.8 - 2.2
18/09:00pm 23.2 24.3 20.4 84 1.8 ESE 15 20 8 11 1018.6 1018.5 2.2
18/08:30pm 23.1 24.4 20.8 87 1.5 ESE 15 20 8 11 1018.6 - 2.2
18/08:00pm 23.2 24.3 20.4 84 1.8 ESE 15 19 8 10 1018.5 - 2.2
18/07:30pm 23.2 25.4 20.4 84 1.8 SSE 9 15 5 8 1018.5 - 2.2
18/07:00pm 23.8 26.2 20.1 80 2.4 SSE 7 9 4 5 1018.2 - 2.2
18/06:30pm 23.5 25.2 20.1 81 2.2 SSE 11 17 6 9 1017.7 - 2.2
18/06:00pm 23.6 25.7 20.2 81 2.2 SSE 9 13 5 7 1017.4 1017.3 2.2
18/05:30pm 24.2 24.7 20.0 77 2.7 ESE 17 24 9 13 1017.3 - 2.2
18/05:00pm 25.3 25.3 19.0 68 4.0 E 17 28 9 15 1017.1 - 2.2
18/04:30pm 26.5 26.4 18.7 62 5.0 ENE 17 30 9 16 1017.0 - 2.2
18/04:00pm 27.3 26.8 18.7 59 5.5 ENE 19 26 10 14 1016.6 - 2.2
18/03:30pm 26.9 26.3 18.8 61 5.2 E 20 30 11 16 1016.7 - 2.2
18/03:00pm 26.6 27.7 21.3 72 3.5 E 17 28 9 15 1016.7 1016.6 2.2

Other Formats:

Comma delimited format used in spreadsheet applications
http://www.bom.gov.au/fwo/IDQ60801/IDQ60801.94374.axf

JavaScript Object Notation format (JSON) in row-major order
http://www.bom.gov.au/fwo/IDQ60801/IDQ60801.94374.json